Time;durP1;ratioP1;P1;durP2;ratioP2;P2;SDS_P1;SDS_P2;PMS_P1;PMS_P2;Temp;Humidity;BMP_temperature;BMP_pressure;BME280_temperature;BME280_humidity;BME280_pressure;Samples;Min_cycle;Max_cycle;Signal;HPM_P1;HPM_P2
2023/06/21 00:01:12;;;;;;;;;;;;;;;21.88;73.63;97163.22;607586;233;68187;-61
2023/06/21 00:03:39;;;;;;;;;;;;;;;21.88;73.65;97157.87;607559;233;64977;-61
2023/06/21 00:06:06;;;;;;;;;;;;;;;21.88;73.64;97164.05;607570;231;68729;-61
2023/06/21 00:08:34;;;;;;;;;;;;;;;21.88;73.64;97158.70;607586;233;68992;-61
2023/06/21 00:11:01;;;;;;;;;;;;;;;21.88;73.64;97157.87;607541;233;62906;-61
2023/06/21 00:13:29;;;;;;;;;;;;;;;21.87;73.63;97162.42;607575;233;68852;-61
2023/06/21 00:15:57;;;;;;;;;;;;;;;21.88;73.63;97166.72;607544;233;66667;-61
2023/06/21 00:18:24;;;;;;;;;;;;;;;21.88;73.63;97164.05;607550;233;65169;-61
2023/06/21 00:20:52;;;;;;;;;;;;;;;21.88;73.61;97164.05;607620;233;68746;-61
2023/06/21 00:23:19;;;;;;;;;;;;;;;21.88;73.62;97166.72;607586;233;68443;-61
2023/06/21 00:25:47;;;;;;;;;;;;;;;21.88;73.61;97169.40;607600;233;65053;-61
2023/06/21 00:28:15;;;;;;;;;;;;;;;21.88;73.61;97173.92;607583;233;68309;-61
2023/06/21 00:30:43;;;;;;;;;;;;;;;21.89;73.61;97167.52;607540;233;65888;-61
2023/06/21 00:33:10;;;;;;;;;;;;;;;21.87;73.61;97165.10;607625;233;66080;-61
2023/06/21 00:35:38;;;;;;;;;;;;;;;21.87;73.59;97167.78;607584;233;68757;-61
2023/06/21 00:38:06;;;;;;;;;;;;;;;21.88;73.62;97165.89;607560;233;69030;-61
2023/06/21 00:40:33;;;;;;;;;;;;;;;21.86;73.62;97160.84;607635;233;65065;-60
2023/06/21 00:43:00;;;;;;;;;;;;;;;21.87;73.58;97156.28;607598;233;68366;-60
2023/06/21 00:45:28;;;;;;;;;;;;;;;21.86;73.57;97158.16;607637;233;68298;-60
2023/06/21 00:47:57;;;;;;;;;;;;;;;21.87;73.59;97153.61;607587;233;62499;-60
2023/06/21 00:50:25;;;;;;;;;;;;;;;21.88;73.58;97152.52;613295;229;67062;-60
2023/06/21 00:52:53;;;;;;;;;;;;;;;21.87;73.57;97154.40;616309;230;67160;-60
2023/06/21 00:55:21;;;;;;;;;;;;;;;21.87;73.61;97157.08;616575;230;62923;-60
2023/06/21 00:57:49;;;;;;;;;;;;;;;21.88;73.60;97157.87;616534;230;68820;-60
2023/06/21 01:00:23;;;;;;;;;;;;;;;21.86;73.57;97160.84;616562;230;66368;-60
2023/06/21 01:02:51;;;;;;;;;;;;;;;21.87;73.58;97165.10;616578;230;62732;-61
2023/06/21 01:05:20;;;;;;;;;;;;;;;21.87;73.58;97161.62;616544;228;68888;-61
2023/06/21 01:07:49;;;;;;;;;;;;;;;21.87;73.59;97167.78;616578;230;68601;-60
2023/06/21 01:10:21;;;;;;;;;;;;;;;21.87;73.58;97167.78;616550;230;62623;-60
2023/06/21 01:12:54;;;;;;;;;;;;;;;21.86;73.56;97166.19;616440;229;68609;-61
2023/06/21 01:15:29;;;;;;;;;;;;;;;21.87;73.55;97162.42;616593;230;68247;-60
2023/06/21 01:17:58;;;;;;;;;;;;;;;21.86;73.58;97154.69;616562;230;64813;-60
2023/06/21 01:20:29;;;;;;;;;;;;;;;21.86;73.57;97163.52;616502;230;66275;-60
2023/06/21 01:23:09;;;;;;;;;;;;;;;21.86;73.57;97160.84;616493;230;66829;-60
2023/06/21 01:25:50;;;;;;;;;;;;;;;21.86;73.56;97165.39;616414;229;62698;-60
2023/06/21 01:28:32;;;;;;;;;;;;;;;21.86;73.57;97168.86;616602;230;68475;-60
2023/06/21 01:31:01;;;;;;;;;;;;;;;21.86;73.56;97171.54;616601;230;68287;-61
2023/06/21 01:33:30;;;;;;;;;;;;;;;21.86;73.56;97173.42;616560;230;65070;-61
2023/06/21 01:36:02;;;;;;;;;;;;;;;21.85;73.60;97163.77;616549;230;68809;-61
2023/06/21 01:38:28;;;;;;;;;;;;;;;21.86;73.56;97176.89;616504;229;68739;-61
2023/06/21 01:40:56;;;;;;;;;;;;;;;21.85;73.57;97164.59;616588;230;65018;-61
2023/06/21 01:43:24;;;;;;;;;;;;;;;21.85;73.58;97169.95;616617;230;68603;-61
2023/06/21 01:45:52;;;;;;;;;;;;;;;21.86;73.58;97165.39;616495;230;68677;-61
2023/06/21 01:48:20;;;;;;;;;;;;;;;21.86;73.58;97166.19;613707;230;67199;-60
2023/06/21 01:50:50;;;;;;;;;;;;;;;21.85;73.59;97167.27;609350;229;45838;-61
2023/06/21 01:53:19;;;;;;;;;;;;;;;21.85;73.59;97161.92;607561;233;68676;-61
2023/06/21 01:55:48;;;;;;;;;;;;;;;21.86;73.56;97166.19;607628;233;65061;-60
2023/06/21 01:58:16;;;;;;;;;;;;;;;21.85;73.57;97161.92;607535;231;68549;-61
2023/06/21 02:00:44;;;;;;;;;;;;;;;21.85;73.55;97158.42;607573;233;66378;-60
2023/06/21 02:03:14;;;;;;;;;;;;;;;21.84;73.56;97160.30;607592;233;63026;-60
2023/06/21 02:05:42;;;;;;;;;;;;;;;21.86;73.55;97155.48;607609;233;66004;-61
2023/06/21 02:08:15;;;;;;;;;;;;;;;21.85;73.58;97159.25;607573;233;68911;-61
2023/06/21 02:10:40;;;;;;;;;;;;;;;21.85;73.57;97153.89;607535;233;66027;-60
2023/06/21 02:13:09;;;;;;;;;;;;;;;21.86;73.56;97165.39;607547;233;66117;-60
2023/06/21 02:15:38;;;;;;;;;;;;;;;21.85;73.58;97166.45;607561;233;68657;-60
2023/06/21 02:18:05;;;;;;;;;;;;;;;21.85;73.57;97169.95;607570;233;65781;-60
2023/06/21 02:20:33;;;;;;;;;;;;;;;21.86;73.58;97176.89;607597;233;68720;-61
2023/06/21 02:23:00;;;;;;;;;;;;;;;21.86;73.59;97181.45;607600;231;68572;-61
2023/06/21 02:25:28;;;;;;;;;;;;;;;21.86;73.59;97184.12;607532;233;63602;-60
2023/06/21 02:27:56;;;;;;;;;;;;;;;21.85;73.58;97182.50;607576;233;68884;-61
2023/06/21 02:30:24;;;;;;;;;;;;;;;21.85;73.62;97175.30;607575;233;68524;-61
2023/06/21 02:32:52;;;;;;;;;;;;;;;21.85;73.60;97183.33;607599;233;62834;-61
2023/06/21 02:35:20;;;;;;;;;;;;;;;21.85;73.60;97182.50;607635;233;66559;-61
2023/06/21 02:37:47;;;;;;;;;;;;;;;21.86;73.58;97192.14;607507;233;69169;-61
2023/06/21 02:40:15;;;;;;;;;;;;;;;21.85;73.60;97196.70;607587;233;66163;-60
2023/06/21 02:42:44;;;;;;;;;;;;;;;21.85;73.60;97196.70;607562;233;65985;-61
2023/06/21 02:45:11;;;;;;;;;;;;;;;21.85;73.61;97195.87;607574;233;68599;-61
2023/06/21 02:47:39;;;;;;;;;;;;;;;21.84;73.61;97189.73;607619;233;64852;-60
2023/06/21 02:50:07;;;;;;;;;;;;;;;21.84;73.63;97197.75;607548;229;67372;-61
2023/06/21 02:52:35;;;;;;;;;;;;;;;21.85;73.65;97195.87;607544;233;68714;-61
2023/06/21 02:55:07;;;;;;;;;;;;;;;21.84;73.67;97200.43;607611;233;64998;-61
2023/06/21 02:57:35;;;;;;;;;;;;;;;21.84;73.66;97205.78;607574;233;65982;-59
2023/06/21 03:00:17;;;;;;;;;;;;;;;21.84;73.63;97208.45;607567;233;67171;-60
2023/06/21 03:02:34;;;;;;;;;;;;;;;21.85;73.66;97195.87;607284;232;65313;-62
2023/06/21 03:05:01;;;;;;;;;;;;;;;21.85;73.67;97198.55;607527;233;66658;-61
2023/06/21 03:07:28;;;;;;;;;;;;;;;21.83;73.64;97198.84;607570;233;68388;-61
2023/06/21 03:09:56;;;;;;;;;;;;;;;21.84;73.68;97203.11;607578;233;64924;-62
2023/06/21 03:12:24;;;;;;;;;;;;;;;21.85;73.67;97211.92;607553;233;66232;-61
2023/06/21 03:14:52;;;;;;;;;;;;;;;21.84;73.67;97210.34;607638;233;69097;-61
2023/06/21 03:17:20;;;;;;;;;;;;;;;21.84;73.68;97216.48;607539;233;65683;-60
2023/06/21 03:19:47;;;;;;;;;;;;;;;21.84;73.67;97213.02;607571;233;66618;-60
2023/06/21 03:22:15;;;;;;;;;;;;;;;21.84;73.69;97211.13;607591;233;66491;-60
2023/06/21 03:24:42;;;;;;;;;;;;;;;21.84;73.68;97221.83;607572;233;62731;-60
2023/06/21 03:27:10;;;;;;;;;;;;;;;21.83;73.67;97211.42;607613;233;68831;-61
2023/06/21 03:29:38;;;;;;;;;;;;;;;21.83;73.67;97219.45;607566;233;68451;-61
2023/06/21 03:32:06;;;;;;;;;;;;;;;21.84;73.70;97216.48;607530;233;62539;-61
2023/06/21 03:34:33;;;;;;;;;;;;;;;21.84;73.71;97213.02;607555;233;68791;-61
2023/06/21 03:37:01;;;;;;;;;;;;;;;21.84;73.70;97211.13;607575;233;66740;-61
2023/06/21 03:39:29;;;;;;;;;;;;;;;21.82;73.69;97205.24;607603;233;63004;-60
2023/06/21 03:41:57;;;;;;;;;;;;;;;21.83;73.71;97220.24;607558;233;66400;-60
2023/06/21 03:44:24;;;;;;;;;;;;;;;21.83;73.72;97214.89;607555;233;68369;-60
2023/06/21 03:46:51;;;;;;;;;;;;;;;21.84;73.70;97207.66;607565;233;64884;-60
2023/06/21 03:49:21;;;;;;;;;;;;;;;21.83;73.70;97208.74;607541;227;66271;-60
2023/06/21 03:51:48;;;;;;;;;;;;;;;21.83;73.73;97214.89;604119;233;70174;-60
2023/06/21 03:54:16;;;;;;;;;;;;;;;21.83;73.71;97225.59;607608;233;65117;-60
2023/06/21 03:56:44;;;;;;;;;;;;;;;21.83;73.73;97220.24;607574;233;68975;-60
2023/06/21 03:59:12;;;;;;;;;;;;;;;21.83;73.75;97214.09;607554;231;69444;-60
2023/06/21 04:01:39;;;;;;;;;;;;;;;21.82;73.76;97210.59;607565;233;62704;-60
2023/06/21 04:04:09;;;;;;;;;;;;;;;21.84;73.74;97210.34;607605;232;51235;-60
2023/06/21 04:06:38;;;;;;;;;;;;;;;21.83;73.77;97208.74;607611;233;66672;-60
2023/06/21 04:09:07;;;;;;;;;;;;;;;21.82;73.77;97202.56;607568;233;62852;-60
2023/06/21 04:11:35;;;;;;;;;;;;;;;21.82;73.77;97204.45;607533;231;66320;-60
2023/06/21 04:14:02;;;;;;;;;;;;;;;21.83;73.78;97208.74;607593;233;68421;-60
2023/06/21 04:16:31;;;;;;;;;;;;;;;21.82;73.76;97205.24;607571;233;65635;-60
2023/06/21 04:18:58;;;;;;;;;;;;;;;21.82;73.77;97207.12;607626;231;68987;-60
2023/06/21 04:21:26;;;;;;;;;;;;;;;21.82;73.78;97210.59;607608;233;67422;-60
2023/06/21 04:23:53;;;;;;;;;;;;;;;21.82;73.80;97207.92;607587;231;62575;-60
2023/06/21 04:26:22;;;;;;;;;;;;;;;21.82;73.86;97207.92;607563;233;69173;-60
2023/06/21 04:28:50;;;;;;;;;;;;;;;21.81;73.83;97203.66;607575;231;69394;-60
2023/06/21 04:31:19;;;;;;;;;;;;;;;21.82;73.87;97205.24;607140;233;65080;-60
2023/06/21 04:33:46;;;;;;;;;;;;;;;21.81;73.92;97206.33;607666;233;68535;-60
2023/06/21 04:36:17;;;;;;;;;;;;;;;21.82;73.92;97205.24;607613;233;68277;-60
2023/06/21 04:38:49;;;;;;;;;;;;;;;21.82;73.91;97207.12;607540;233;62383;-60
2023/06/21 04:41:14;;;;;;;;;;;;;;;21.82;73.95;97207.12;607409;233;68460;-60
2023/06/21 04:43:42;;;;;;;;;;;;;;;21.82;73.96;97210.59;607602;233;68516;-60
2023/06/21 04:46:09;;;;;;;;;;;;;;;21.81;73.99;97211.67;607662;233;64973;-60
2023/06/21 04:48:37;;;;;;;;;;;;;;;21.82;74.07;97207.12;607600;233;68509;-60
2023/06/21 04:51:07;;;;;;;;;;;;;;;21.81;74.06;97209.00;607307;229;68528;-60
2023/06/21 04:53:34;;;;;;;;;;;;;;;21.81;74.06;97211.67;607619;233;66527;-60
2023/06/21 04:56:02;;;;;;;;;;;;;;;21.82;74.09;97217.82;607409;233;66300;-60
2023/06/21 04:58:35;;;;;;;;;;;;;;;21.81;74.09;97211.67;607572;233;68561;-60
2023/06/21 05:01:00;;;;;;;;;;;;;;;21.82;74.14;97220.50;607386;232;65043;-60
2023/06/21 05:03:28;;;;;;;;;;;;;;;21.82;74.17;97220.50;607472;231;68817;-60
2023/06/21 05:05:57;;;;;;;;;;;;;;;21.81;74.17;97218.91;607489;231;47157;-60
2023/06/21 05:08:25;;;;;;;;;;;;;;;21.81;74.25;97226.94;607600;233;65074;-60
2023/06/21 05:10:52;;;;;;;;;;;;;;;21.80;74.28;97220.78;607628;233;66609;-62
2023/06/21 05:13:24;;;;;;;;;;;;;;;21.81;74.32;97224.26;607476;233;66654;-60
2023/06/21 05:15:52;;;;;;;;;;;;;;;21.80;74.35;97220.78;607604;233;64990;-61
2023/06/21 05:18:19;;;;;;;;;;;;;;;21.80;74.37;97220.78;607538;233;68710;-60
2023/06/21 05:20:47;;;;;;;;;;;;;;;21.80;74.40;97218.11;607586;233;68630;-61
2023/06/21 05:23:14;;;;;;;;;;;;;;;21.80;74.43;97223.46;607615;233;65154;-60
2023/06/21 05:25:41;;;;;;;;;;;;;;;21.80;74.46;97222.64;607615;231;68555;-60
2023/06/21 05:28:09;;;;;;;;;;;;;;;21.80;74.44;97218.11;607598;233;68513;-61
2023/06/21 05:30:36;;;;;;;;;;;;;;;21.79;74.48;97219.16;607537;233;65030;-60
2023/06/21 05:33:04;;;;;;;;;;;;;;;21.80;74.48;97217.28;607582;231;69113;-61
2023/06/21 05:35:31;;;;;;;;;;;;;;;21.79;74.55;97213.81;607589;233;68712;-60
2023/06/21 05:37:59;;;;;;;;;;;;;;;21.80;74.52;97215.44;607488;231;64986;-61
2023/06/21 05:40:26;;;;;;;;;;;;;;;21.80;74.55;97209.26;607462;233;68756;-61
2023/06/21 05:42:54;;;;;;;;;;;;;;;21.79;74.59;97205.79;607590;233;66627;-61
2023/06/21 05:45:22;;;;;;;;;;;;;;;21.80;74.53;97210.09;607563;233;65056;-61
2023/06/21 05:47:50;;;;;;;;;;;;;;;21.80;74.55;97220.78;607612;233;68858;-61
2023/06/21 05:50:17;;;;;;;;;;;;;;;21.79;74.57;97216.48;607618;229;68676;-60
2023/06/21 05:52:45;;;;;;;;;;;;;;;21.80;74.55;97203.91;607596;233;65053;-60
2023/06/21 05:55:13;;;;;;;;;;;;;;;21.80;74.61;97204.73;607576;233;68769;-60
2023/06/21 05:57:40;;;;;;;;;;;;;;;21.79;74.61;97203.11;607582;233;66475;-61
2023/06/21 06:00:09;;;;;;;;;;;;;;;21.80;74.61;97203.91;607529;233;65020;-61
2023/06/21 06:02:42;;;;;;;;;;;;;;;21.79;74.56;97199.64;607670;233;39243;-61
2023/06/21 06:05:10;;;;;;;;;;;;;;;21.78;74.57;97196.17;606831;231;68621;-61
2023/06/21 06:07:38;;;;;;;;;;;;;;;21.80;74.60;97201.23;609757;228;62969;-61
2023/06/21 06:10:06;;;;;;;;;;;;;;;21.77;74.13;97191.91;620460;228;68856;-60
2023/06/21 06:12:33;;;;;;;;;;;;;;;21.77;74.38;97194.58;620307;228;68473;-61
2023/06/21 06:15:01;;;;;;;;;;;;;;;21.78;74.83;97196.17;620426;228;62890;-60
2023/06/21 06:17:30;;;;;;;;;;;;;;;21.79;74.75;97187.06;620518;228;66692;-60
2023/06/21 06:19:57;;;;;;;;;;;;;;;21.80;74.80;97188.69;620341;228;69005;-60
2023/06/21 06:22:25;;;;;;;;;;;;;;;21.80;74.76;97180.66;620051;228;65127;-61
2023/06/21 06:24:52;;;;;;;;;;;;;;;21.81;74.75;97186.80;620371;228;68735;-61
2023/06/21 06:27:20;;;;;;;;;;;;;;;21.81;74.77;97184.12;620374;228;68650;-60
2023/06/21 06:29:47;;;;;;;;;;;;;;;21.80;74.72;97180.66;620495;228;64843;-61
2023/06/21 06:32:15;;;;;;;;;;;;;;;21.81;74.72;97179.58;620426;226;68985;-60
2023/06/21 06:34:42;;;;;;;;;;;;;;;21.81;74.72;97184.92;620439;228;68652;-61
2023/06/21 06:37:11;;;;;;;;;;;;;;;21.83;74.74;97179.31;620444;228;65026;-62
2023/06/21 06:39:39;;;;;;;;;;;;;;;21.82;74.66;97181.17;619468;228;66246;-60
2023/06/21 06:42:06;;;;;;;;;;;;;;;21.83;74.74;97180.11;616240;230;66586;-60
2023/06/21 06:44:35;;;;;;;;;;;;;;;21.82;74.82;97175.81;616046;230;65020;-60
2023/06/21 06:47:02;;;;;;;;;;;;;;;21.83;74.72;97180.11;616092;230;67693;-60
2023/06/21 06:49:30;;;;;;;;;;;;;;;21.83;74.64;97177.44;617512;228;68713;-60
2023/06/21 06:51:57;;;;;;;;;;;;;;;21.83;74.65;97177.44;621847;228;65051;-60
2023/06/21 06:54:25;;;;;;;;;;;;;;;21.84;74.64;97180.91;618585;227;68890;-60
2023/06/21 06:56:52;;;;;;;;;;;;;;;21.84;74.73;97176.35;616415;230;68739;-60
2023/06/21 06:59:20;;;;;;;;;;;;;;;21.84;74.65;97173.67;616490;228;65282;-61
2023/06/21 07:01:47;;;;;;;;;;;;;;;21.84;74.67;97176.35;616436;230;66587;-60
2023/06/21 07:04:17;;;;;;;;;;;;;;;21.84;74.66;97181.70;616455;230;66535;-60
2023/06/21 07:06:44;;;;;;;;;;;;;;;21.85;74.65;97174.47;616506;230;62923;-60
2023/06/21 07:09:12;;;;;;;;;;;;;;;21.84;74.68;97179.03;616418;230;66709;-60
2023/06/21 07:11:39;;;;;;;;;;;;;;;21.85;74.64;97180.65;616469;230;68454;-60
2023/06/21 07:14:07;;;;;;;;;;;;;;;21.86;74.73;97181.45;616504;230;64972;-60
2023/06/21 07:16:35;;;;;;;;;;;;;;;21.86;74.69;97178.77;616398;230;68714;-60
2023/06/21 07:19:05;;;;;;;;;;;;;;;21.86;74.70;97176.89;616435;230;66611;-59
2023/06/21 07:21:33;;;;;;;;;;;;;;;21.85;74.67;97177.97;616408;230;62740;-60
2023/06/21 07:24:01;;;;;;;;;;;;;;;21.88;74.21;97174.75;616464;230;68758;-60
2023/06/21 07:26:28;;;;;;;;;;;;;;;21.89;74.61;97173.66;616507;230;68318;-60
2023/06/21 07:28:56;;;;;;;;;;;;;;;21.87;74.80;97183.83;616305;230;64983;-61
2023/06/21 07:31:25;;;;;;;;;;;;;;;21.87;74.70;97172.33;616389;230;68812;-60
2023/06/21 07:33:54;;;;;;;;;;;;;;;21.86;74.71;97166.19;616444;230;68786;-61
2023/06/21 07:36:21;;;;;;;;;;;;;;;21.87;74.61;97166.98;616342;229;65029;-61
2023/06/21 07:38:49;;;;;;;;;;;;;;;21.86;74.60;97171.54;616448;230;66540;-61
2023/06/21 07:41:16;;;;;;;;;;;;;;;21.87;74.52;97161.62;616404;230;66455;-61
2023/06/21 07:43:44;;;;;;;;;;;;;;;21.86;74.60;97162.72;616435;230;63849;-61
2023/06/21 07:46:11;;;;;;;;;;;;;;;21.87;74.55;97172.33;616488;227;68725;-61
2023/06/21 07:48:39;;;;;;;;;;;;;;;21.86;74.52;97165.39;620805;227;69462;-61
2023/06/21 07:51:07;;;;;;;;;;;;;;;21.86;74.55;97166.19;618902;229;65126;-61
2023/06/21 07:53:34;;;;;;;;;;;;;;;21.91;73.60;97163.50;618977;229;65235;-61
2023/06/21 07:56:01;;;;;;;;;;;;;;;21.90;73.56;97166.43;618791;229;66541;-61
2023/06/21 07:58:29;;;;;;;;;;;;;;;21.88;73.96;97169.40;617835;228;62885;-61
2023/06/21 08:00:57;;;;;;;;;;;;;;;21.89;74.08;97170.19;617509;229;66965;-61
2023/06/21 08:03:24;;;;;;;;;;;;;;;21.88;74.21;97169.40;617446;229;66695;-61
2023/06/21 08:05:52;;;;;;;;;;;;;;;21.89;74.23;97164.84;617410;229;62894;-61
2023/06/21 08:08:20;;;;;;;;;;;;;;;21.88;74.08;97169.40;616701;229;68773;-61
2023/06/21 08:10:47;;;;;;;;;;;;;;;21.88;74.11;97173.92;616719;229;68680;-60
2023/06/21 08:13:18;;;;;;;;;;;;;;;21.89;73.99;97172.87;617197;229;66532;-61
2023/06/21 08:15:46;;;;;;;;;;;;;;;21.87;73.98;97172.33;617312;228;68950;-61
2023/06/21 08:18:13;;;;;;;;;;;;;;;21.88;73.90;97173.92;617331;229;68687;-61
2023/06/21 08:20:41;;;;;;;;;;;;;;;21.87;73.86;97167.78;617258;229;62923;-61
2023/06/21 08:23:09;;;;;;;;;;;;;;;21.87;73.82;97175.80;617437;229;68780;-61
2023/06/21 08:25:36;;;;;;;;;;;;;;;21.87;73.80;97172.33;617533;227;69117;-61
2023/06/21 08:28:04;;;;;;;;;;;;;;;21.87;73.77;97173.13;617364;229;65033;-62
2023/06/21 08:30:31;;;;;;;;;;;;;;;21.87;73.77;97177.69;617500;229;68726;-63
2023/06/21 08:33:01;;;;;;;;;;;;;;;21.87;73.94;97173.13;617157;229;47077;-61
2023/06/21 08:35:30;;;;;;;;;;;;;;;21.90;71.44;97172.58;617448;229;63096;-62
2023/06/21 08:37:59;;;;;;;;;;;;;;;21.92;72.18;97175.80;617506;229;68694;-61
2023/06/21 08:40:28;;;;;;;;;;;;;;;21.94;73.31;97168.30;617510;229;66368;-62
2023/06/21 08:42:55;;;;;;;;;;;;;;;21.93;74.00;97169.39;617499;229;65191;-61
2023/06/21 08:45:23;;;;;;;;;;;;;;;21.92;73.99;97173.11;617515;229;66376;-61
2023/06/21 08:47:53;;;;;;;;;;;;;;;21.91;74.06;97168.84;617424;229;66689;-61
2023/06/21 08:50:21;;;;;;;;;;;;;;;21.91;74.11;97168.84;619926;227;65037;-62
2023/06/21 08:52:51;;;;;;;;;;;;;;;21.91;74.13;97168.84;621414;228;68468;-61
2023/06/21 08:55:20;;;;;;;;;;;;;;;21.90;72.39;97171.78;621337;228;68445;-61
2023/06/21 08:57:58;;;;;;;;;;;;;;;21.91;72.10;97171.52;621473;228;65065;-60
2023/06/21 09:00:30;;;;;;;;;;;;;;;21.93;73.97;97174.73;621426;228;66484;-61
2023/06/21 09:03:02;;;;;;;;;;;;;;;21.92;72.19;97164.30;621097;228;68648;-61
2023/06/21 09:05:31;;;;;;;;;;;;;;;21.93;73.82;97172.06;620468;228;62868;-60
2023/06/21 09:08:00;;;;;;;;;;;;;;;21.92;74.00;97166.97;621438;228;68530;-61
2023/06/21 09:10:31;;;;;;;;;;;;;;;21.91;72.69;97168.84;621317;228;66589;-61
2023/06/21 09:13:00;;;;;;;;;;;;;;;21.93;73.25;97171.23;621364;228;63016;-61
2023/06/21 09:15:28;;;;;;;;;;;;;;;21.91;71.91;97163.50;621408;228;68820;-61
2023/06/21 09:17:56;;;;;;;;;;;;;;;21.92;73.41;97164.30;616672;228;66481;-61
2023/06/21 09:20:28;;;;;;;;;;;;;;;21.91;73.60;97158.14;616220;230;65068;-61
2023/06/21 09:22:57;;;;;;;;;;;;;;;21.90;73.59;97161.88;616141;230;66137;-61
2023/06/21 09:25:25;;;;;;;;;;;;;;;21.90;73.66;97156.52;616166;230;66682;-62
2023/06/21 09:27:54;;;;;;;;;;;;;;;21.89;73.53;97160.28;616246;230;65045;-61
2023/06/21 09:30:22;;;;;;;;;;;;;;;21.90;73.52;97166.43;616176;230;68748;-61
2023/06/21 09:32:53;;;;;;;;;;;;;;;21.90;73.51;97164.55;613896;230;68690;-61
2023/06/21 09:35:20;;;;;;;;;;;;;;;21.90;73.53;97161.88;616223;230;62920;-61
2023/06/21 09:37:48;;;;;;;;;;;;;;;21.90;73.54;97167.23;616112;230;68805;-61
2023/06/21 09:40:15;;;;;;;;;;;;;;;21.91;73.44;97160.03;616014;230;68513;-61
2023/06/21 09:42:45;;;;;;;;;;;;;;;21.90;73.49;97161.88;616115;230;62990;-62
2023/06/21 09:45:13;;;;;;;;;;;;;;;21.90;73.43;97161.88;616165;230;68525;-61
2023/06/21 09:47:43;;;;;;;;;;;;;;;21.90;73.43;97167.23;616245;230;66564;-61
2023/06/21 09:50:12;;;;;;;;;;;;;;;21.90;73.37;97164.55;620286;227;62807;-61
2023/06/21 09:52:45;;;;;;;;;;;;;;;21.90;73.38;97164.55;623830;227;68813;-61
2023/06/21 09:55:16;;;;;;;;;;;;;;;21.91;73.34;97163.50;622621;227;68463;-60
2023/06/21 09:57:45;;;;;;;;;;;;;;;21.91;73.35;97168.84;621070;227;65098;-60
2023/06/21 10:00:13;;;;;;;;;;;;;;;21.90;73.34;97153.84;620530;227;66683;-60
2023/06/21 10:02:44;;;;;;;;;;;;;;;21.90;73.34;97156.52;619588;227;69474;-60
2023/06/21 10:05:19;;;;;;;;;;;;;;;21.90;73.35;97156.52;622784;227;63805;-60
2023/06/21 10:07:47;;;;;;;;;;;;;;;21.91;73.32;97152.00;623485;227;68693;-60
2023/06/21 10:10:15;;;;;;;;;;;;;;;21.91;73.27;97152.80;623555;227;68665;-60
2023/06/21 10:12:55;;;;;;;;;;;;;;;21.91;73.27;97154.67;623528;227;65017;-60
2023/06/21 10:15:22;;;;;;;;;;;;;;;21.91;73.31;97154.67;623576;227;68992;-59
2023/06/21 10:17:51;;;;;;;;;;;;;;;21.91;73.26;97149.33;623551;227;66547;-60
2023/06/21 10:20:20;;;;;;;;;;;;;;;21.91;73.25;97150.12;623380;227;63786;-60
2023/06/21 10:22:53;;;;;;;;;;;;;;;21.91;73.25;97152.00;623531;227;66433;-61
2023/06/21 10:25:19;;;;;;;;;;;;;;;21.92;72.63;97146.36;623358;226;66567;-60
2023/06/21 10:27:46;;;;;;;;;;;;;;;21.93;72.95;97150.66;623416;227;62772;-61
2023/06/21 10:30:19;;;;;;;;;;;;;;;21.92;73.01;97140.21;622354;227;68978;-61
2023/06/21 10:32:48;;;;;;;;;;;;;;;21.91;73.04;97142.09;623427;226;68736;-60
2023/06/21 10:35:20;;;;;;;;;;;;;;;21.92;72.84;97148.23;623301;227;62985;-60
2023/06/21 10:37:57;;;;;;;;;;;;;;;21.92;72.84;97148.23;622777;227;49727;-60
2023/06/21 10:40:25;;;;;;;;;;;;;;;21.91;72.75;97147.44;623556;227;66559;-60
2023/06/21 10:42:55;;;;;;;;;;;;;;;21.93;72.76;97149.83;623572;227;62913;-61
2023/06/21 10:45:22;;;;;;;;;;;;;;;21.93;72.71;97155.18;623468;227;66540;-62
2023/06/21 10:47:50;;;;;;;;;;;;;;;21.92;72.92;97148.23;623546;227;66551;-62
2023/06/21 10:50:18;;;;;;;;;;;;;;;21.95;71.77;97153.84;623502;227;62936;-62
2023/06/21 10:52:47;;;;;;;;;;;;;;;21.97;69.19;97158.13;623577;227;66646;-61
2023/06/21 10:55:15;;;;;;;;;;;;;;;21.98;68.25;97149.81;617754;227;66634;-62
2023/06/21 10:57:43;;;;;;;;;;;;;;;22.01;67.89;97159.17;616447;230;62796;-62
2023/06/21 11:00:11;;;;;;;;;;;;;;;22.02;67.37;97158.91;616452;230;66568;-62
2023/06/21 11:02:39;;;;;;;;;;;;;;;22.03;66.89;97157.83;616419;230;66673;-62
2023/06/21 11:05:18;;;;;;;;;;;;;;;22.04;66.45;97156.73;616406;230;63764;-61
2023/06/21 11:07:49;;;;;;;;;;;;;;;22.06;66.18;97159.16;618822;225;68909;-62
2023/06/21 11:10:17;;;;;;;;;;;;;;;22.06;65.78;97159.16;616432;230;68512;-62
2023/06/21 11:12:45;;;;;;;;;;;;;;;22.07;65.99;97155.39;616440;230;65119;-62
2023/06/21 11:15:14;;;;;;;;;;;;;;;22.07;66.46;97158.07;616374;230;68819;-59
2023/06/21 11:17:41;;;;;;;;;;;;;;;22.07;66.53;97156.22;616038;230;66957;-62
2023/06/21 11:20:22;;;;;;;;;;;;;;;22.08;66.93;97148.98;616428;230;63845;-62
2023/06/21 11:22:56;;;;;;;;;;;;;;;22.08;66.39;97151.66;616373;230;68810;-61
2023/06/21 11:25:24;;;;;;;;;;;;;;;22.09;65.76;97150.58;616397;230;68657;-61
2023/06/21 11:27:56;;;;;;;;;;;;;;;22.09;66.04;97145.22;616440;230;65017;-61
2023/06/21 11:30:24;;;;;;;;;;;;;;;22.09;66.00;97156.72;612950;230;68893;-61
2023/06/21 11:32:59;;;;;;;;;;;;;;;22.09;66.52;97154.05;616388;230;66600;-62
2023/06/21 11:35:25;;;;;;;;;;;;;;;22.10;67.58;97154.88;616235;228;65021;-61
2023/06/21 11:37:54;;;;;;;;;;;;;;;22.08;67.93;97138.28;615975;230;68438;-62
2023/06/21 11:40:28;;;;;;;;;;;;;;;22.08;67.30;97139.07;616372;230;68646;-61
2023/06/21 11:42:56;;;;;;;;;;;;;;;22.08;66.67;97144.42;616421;230;65099;-60
2023/06/21 11:45:32;;;;;;;;;;;;;;;22.07;66.33;97132.12;616330;230;69002;-60
2023/06/21 11:48:11;;;;;;;;;;;;;;;22.08;66.74;97139.07;616259;230;66577;-60
2023/06/21 11:50:40;;;;;;;;;;;;;;;22.09;65.39;97129.16;615995;230;65783;-61
2023/06/21 11:53:20;;;;;;;;;;;;;;;22.09;65.32;97132.63;615769;230;66660;-61
2023/06/21 11:55:49;;;;;;;;;;;;;;;22.10;66.08;97136.93;615726;230;70740;-61
2023/06/21 11:58:18;;;;;;;;;;;;;;;22.11;69.31;97135.84;615829;230;65065;-61
2023/06/21 12:00:46;;;;;;;;;;;;;;;22.09;69.95;97135.31;615841;230;68774;-62
2023/06/21 12:03:18;;;;;;;;;;;;;;;22.09;66.93;97132.63;615806;230;66631;-61
2023/06/21 12:05:55;;;;;;;;;;;;;;;22.08;66.29;97125.69;615831;230;62721;-61
2023/06/21 12:08:26;;;;;;;;;;;;;;;22.09;66.46;97129.95;615791;230;68792;-61
2023/06/21 12:10:53;;;;;;;;;;;;;;;22.11;68.85;97133.16;615870;230;68665;-61
2023/06/21 12:13:21;;;;;;;;;;;;;;;22.09;69.44;97127.28;615784;230;65081;-61
2023/06/21 12:16:05;;;;;;;;;;;;;;;22.09;68.70;97123.81;615829;230;68796;-61
2023/06/21 12:18:37;;;;;;;;;;;;;;;22.08;67.04;97120.34;615867;230;68705;-61
2023/06/21 12:21:06;;;;;;;;;;;;;;;22.09;67.89;97118.45;615775;230;65054;-61
2023/06/21 12:23:35;;;;;;;;;;;;;;;22.08;67.50;97114.98;615808;230;68794;-65
2023/06/21 12:26:04;;;;;;;;;;;;;;;22.09;66.97;97110.42;615870;230;66265;-60
2023/06/21 12:28:32;;;;;;;;;;;;;;;22.09;67.98;97111.22;615776;230;65320;-61
2023/06/21 12:31:03;;;;;;;;;;;;;;;22.09;71.18;97105.08;615829;230;68807;-61
2023/06/21 12:33:32;;;;;;;;;;;;;;;22.08;71.29;97109.63;615812;227;67111;-60
2023/06/21 12:36:25;;;;;;;;;;;;;;;22.08;69.72;97111.52;615556;230;65100;-60
2023/06/21 12:38:49;;;;;;;;;;;;;;;22.08;70.58;97109.63;620683;227;66578;-61
2023/06/21 12:41:18;;;;;;;;;;;;;;;22.07;71.51;97115.25;622620;228;68659;-61
2023/06/21 12:43:47;;;;;;;;;;;;;;;22.07;71.37;97117.92;622389;227;65066;-61
2023/06/21 12:46:15;;;;;;;;;;;;;;;22.06;71.47;97121.69;622531;228;68751;-61
2023/06/21 12:48:44;;;;;;;;;;;;;;;22.06;71.39;97119.02;619568;227;68516;-61
2023/06/21 12:51:13;;;;;;;;;;;;;;;22.07;71.45;97123.28;622009;227;62960;-61
2023/06/21 12:53:42;;;;;;;;;;;;;;;22.07;71.47;97123.28;623483;226;68270;-61
2023/06/21 12:56:10;;;;;;;;;;;;;;;22.06;71.51;97108.30;623420;226;68466;-61